sensor_id;sensor_type;location;lat;lon;timestamp;temperature;humidity
43651;DHT22;29247;50.944;5.382;2022-08-19T00:00:44;20.80;78.70
43651;DHT22;29247;50.944;5.382;2022-08-19T00:03:10;20.80;78.70
43651;DHT22;29247;50.944;5.382;2022-08-19T00:05:57;20.80;78.70
43651;DHT22;29247;50.944;5.382;2022-08-19T00:08:23;20.80;78.80
43651;DHT22;29247;50.944;5.382;2022-08-19T00:10:51;20.80;78.60
43651;DHT22;29247;50.944;5.382;2022-08-19T00:13:19;20.80;78.40
43651;DHT22;29247;50.944;5.382;2022-08-19T00:15:44;20.80;78.20
43651;DHT22;29247;50.944;5.382;2022-08-19T00:18:10;20.70;78.20
43651;DHT22;29247;50.944;5.382;2022-08-19T00:20:36;20.70;79.00
43651;DHT22;29247;50.944;5.382;2022-08-19T00:23:06;20.70;78.60
43651;DHT22;29247;50.944;5.382;2022-08-19T00:25:32;20.70;78.80
43651;DHT22;29247;50.944;5.382;2022-08-19T00:27:58;20.70;78.60
43651;DHT22;29247;50.944;5.382;2022-08-19T00:30:25;20.60;78.00
43651;DHT22;29247;50.944;5.382;2022-08-19T00:32:52;20.60;77.90
43651;DHT22;29247;50.944;5.382;2022-08-19T00:35:20;20.60;78.00
43651;DHT22;29247;50.944;5.382;2022-08-19T00:37:49;20.50;78.20
43651;DHT22;29247;50.944;5.382;2022-08-19T00:40:17;20.50;78.60
43651;DHT22;29247;50.944;5.382;2022-08-19T00:42:46;20.50;78.70
43651;DHT22;29247;50.944;5.382;2022-08-19T00:45:16;20.40;78.90
43651;DHT22;29247;50.944;5.382;2022-08-19T00:47:42;20.40;78.80
43651;DHT22;29247;50.944;5.382;2022-08-19T00:50:13;20.50;78.40
43651;DHT22;29247;50.944;5.382;2022-08-19T00:52:43;20.40;78.30
43651;DHT22;29247;50.944;5.382;2022-08-19T00:55:15;20.30;78.60
43651;DHT22;29247;50.944;5.382;2022-08-19T00:57:46;20.30;78.70
43651;DHT22;29247;50.944;5.382;2022-08-19T01:00:17;20.30;78.60
43651;DHT22;29247;50.944;5.382;2022-08-19T01:02:46;20.30;78.20
43651;DHT22;29247;50.944;5.382;2022-08-19T01:05:16;20.20;78.30
43651;DHT22;29247;50.944;5.382;2022-08-19T01:07:43;20.20;78.80
43651;DHT22;29247;50.944;5.382;2022-08-19T01:10:17;20.20;78.90
43651;DHT22;29247;50.944;5.382;2022-08-19T01:12:48;20.10;79.00
43651;DHT22;29247;50.944;5.382;2022-08-19T01:15:21;20.10;79.20
43651;DHT22;29247;50.944;5.382;2022-08-19T01:17:50;20.10;79.20
43651;DHT22;29247;50.944;5.382;2022-08-19T01:20:22;20.10;79.40
43651;DHT22;29247;50.944;5.382;2022-08-19T01:22:49;20.10;79.30
43651;DHT22;29247;50.944;5.382;2022-08-19T01:25:24;20.10;79.00
43651;DHT22;29247;50.944;5.382;2022-08-19T01:27:53;20.10;79.00
43651;DHT22;29247;50.944;5.382;2022-08-19T01:30:25;20.00;79.10
43651;DHT22;29247;50.944;5.382;2022-08-19T01:32:55;20.00;79.00
43651;DHT22;29247;50.944;5.382;2022-08-19T01:35:25;20.00;78.90
43651;DHT22;29247;50.944;5.382;2022-08-19T01:37:58;20.00;79.40
43651;DHT22;29247;50.944;5.382;2022-08-19T01:40:29;19.90;79.60
43651;DHT22;29247;50.944;5.382;2022-08-19T01:43:02;20.00;79.70
43651;DHT22;29247;50.944;5.382;2022-08-19T01:45:29;19.90;79.50
43651;DHT22;29247;50.944;5.382;2022-08-19T01:47:58;19.90;79.60
43651;DHT22;29247;50.944;5.382;2022-08-19T01:50:30;19.90;79.80
43651;DHT22;29247;50.944;5.382;2022-08-19T01:52:59;19.90;80.00
43651;DHT22;29247;50.944;5.382;2022-08-19T01:55:25;19.90;80.00
43651;DHT22;29247;50.944;5.382;2022-08-19T01:57:54;19.90;79.80
43651;DHT22;29247;50.944;5.382;2022-08-19T02:00:27;19.90;80.00
43651;DHT22;29247;50.944;5.382;2022-08-19T02:02:55;19.90;79.70
43651;DHT22;29247;50.944;5.382;2022-08-19T02:05:20;19.90;79.80
43651;DHT22;29247;50.944;5.382;2022-08-19T02:07:47;19.90;79.50
43651;DHT22;29247;50.944;5.382;2022-08-19T02:10:18;19.90;79.60
43651;DHT22;29247;50.944;5.382;2022-08-19T02:12:47;19.90;80.00
43651;DHT22;29247;50.944;5.382;2022-08-19T02:15:15;19.90;80.10
43651;DHT22;29247;50.944;5.382;2022-08-19T02:17:43;19.90;80.20
43651;DHT22;29247;50.944;5.382;2022-08-19T02:20:09;19.90;80.10
43651;DHT22;29247;50.944;5.382;2022-08-19T02:22:35;19.90;80.20
43651;DHT22;29247;50.944;5.382;2022-08-19T02:25:01;19.90;80.30
43651;DHT22;29247;50.944;5.382;2022-08-19T02:27:27;19.90;80.20
43651;DHT22;29247;50.944;5.382;2022-08-19T02:29:56;19.90;80.30
43651;DHT22;29247;50.944;5.382;2022-08-19T02:32:21;19.90;80.40
43651;DHT22;29247;50.944;5.382;2022-08-19T02:34:47;19.80;79.80
43651;DHT22;29247;50.944;5.382;2022-08-19T02:37:13;19.80;80.10
43651;DHT22;29247;50.944;5.382;2022-08-19T02:40:01;19.80;80.20
43651;DHT22;29247;50.944;5.382;2022-08-19T02:42:26;19.80;80.30
43651;DHT22;29247;50.944;5.382;2022-08-19T02:44:55;19.80;80.40
43651;DHT22;29247;50.944;5.382;2022-08-19T02:47:21;19.80;80.70
43651;DHT22;29247;50.944;5.382;2022-08-19T02:49:49;19.80;80.80
43651;DHT22;29247;50.944;5.382;2022-08-19T02:52:17;19.80;80.90
43651;DHT22;29247;50.944;5.382;2022-08-19T02:54:48;19.80;81.00
43651;DHT22;29247;50.944;5.382;2022-08-19T02:57:14;19.70;81.00
43651;DHT22;29247;50.944;5.382;2022-08-19T02:59:41;19.80;80.90
43651;DHT22;29247;50.944;5.382;2022-08-19T03:02:07;19.80;81.00
43651;DHT22;29247;50.944;5.382;2022-08-19T03:04:40;19.80;81.10
43651;DHT22;29247;50.944;5.382;2022-08-19T03:07:06;19.80;81.30
43651;DHT22;29247;50.944;5.382;2022-08-19T03:09:32;19.70;81.20
43651;DHT22;29247;50.944;5.382;2022-08-19T03:11:58;19.70;81.20
43651;DHT22;29247;50.944;5.382;2022-08-19T03:14:24;19.70;81.30
43651;DHT22;29247;50.944;5.382;2022-08-19T03:16:52;19.80;81.50
43651;DHT22;29247;50.944;5.382;2022-08-19T03:19:19;19.70;81.30
43651;DHT22;29247;50.944;5.382;2022-08-19T03:21:46;19.70;81.30
43651;DHT22;29247;50.944;5.382;2022-08-19T03:24:13;19.70;81.20
43651;DHT22;29247;50.944;5.382;2022-08-19T03:26:44;19.70;81.30
43651;DHT22;29247;50.944;5.382;2022-08-19T03:29:11;19.70;81.20
43651;DHT22;29247;50.944;5.382;2022-08-19T03:31:39;19.70;81.30
43651;DHT22;29247;50.944;5.382;2022-08-19T03:34:07;19.70;81.40
43651;DHT22;29247;50.944;5.382;2022-08-19T03:36:39;19.70;81.30
43651;DHT22;29247;50.944;5.382;2022-08-19T03:39:07;19.60;81.20
43651;DHT22;29247;50.944;5.382;2022-08-19T03:41:39;19.60;82.00
43651;DHT22;29247;50.944;5.382;2022-08-19T03:44:07;19.60;81.30
43651;DHT22;29247;50.944;5.382;2022-08-19T03:46:36;19.60;81.30
43651;DHT22;29247;50.944;5.382;2022-08-19T03:49:03;19.60;81.30
43651;DHT22;29247;50.944;5.382;2022-08-19T03:51:36;19.60;80.90
43651;DHT22;29247;50.944;5.382;2022-08-19T03:54:06;19.60;81.00
43651;DHT22;29247;50.944;5.382;2022-08-19T03:56:36;19.50;80.80
43651;DHT22;29247;50.944;5.382;2022-08-19T03:59:03;19.60;80.80
43651;DHT22;29247;50.944;5.382;2022-08-19T04:01:29;19.50;80.80
43651;DHT22;29247;50.944;5.382;2022-08-19T04:04:00;19.50;81.00
43651;DHT22;29247;50.944;5.382;2022-08-19T04:06:31;19.50;81.00
43651;DHT22;29247;50.944;5.382;2022-08-19T04:08:59;19.40;80.80
43651;DHT22;29247;50.944;5.382;2022-08-19T04:11:29;19.40;80.60
43651;DHT22;29247;50.944;5.382;2022-08-19T04:13:56;19.40;80.90
43651;DHT22;29247;50.944;5.382;2022-08-19T04:16:24;19.40;80.90
43651;DHT22;29247;50.944;5.382;2022-08-19T04:18:51;19.40;81.10
43651;DHT22;29247;50.944;5.382;2022-08-19T04:21:19;19.30;81.20
43651;DHT22;29247;50.944;5.382;2022-08-19T04:23:48;19.30;81.20
43651;DHT22;29247;50.944;5.382;2022-08-19T04:26:22;19.30;81.20
43651;DHT22;29247;50.944;5.382;2022-08-19T04:28:50;19.40;81.10
43651;DHT22;29247;50.944;5.382;2022-08-19T04:31:25;19.30;80.90
43651;DHT22;29247;50.944;5.382;2022-08-19T04:33:56;19.30;81.00
43651;DHT22;29247;50.944;5.382;2022-08-19T04:36:29;19.30;80.60
43651;DHT22;29247;50.944;5.382;2022-08-19T04:39:00;19.20;80.80
43651;DHT22;29247;50.944;5.382;2022-08-19T04:41:27;19.20;80.90
43651;DHT22;29247;50.944;5.382;2022-08-19T04:44:13;19.20;81.00
43651;DHT22;29247;50.944;5.382;2022-08-19T04:46:39;19.30;81.30
43651;DHT22;29247;50.944;5.382;2022-08-19T04:49:06;19.20;81.10
43651;DHT22;29247;50.944;5.382;2022-08-19T04:51:43;19.20;81.10
43651;DHT22;29247;50.944;5.382;2022-08-19T04:54:11;19.20;81.20
43651;DHT22;29247;50.944;5.382;2022-08-19T04:56:40;19.20;81.00
43651;DHT22;29247;50.944;5.382;2022-08-19T04:59:06;19.20;80.90
43651;DHT22;29247;50.944;5.382;2022-08-19T05:01:37;19.20;80.90
43651;DHT22;29247;50.944;5.382;2022-08-19T05:04:06;19.20;81.20
43651;DHT22;29247;50.944;5.382;2022-08-19T05:06:33;19.20;81.50
43651;DHT22;29247;50.944;5.382;2022-08-19T05:09:05;19.20;81.50
43651;DHT22;29247;50.944;5.382;2022-08-19T05:11:34;19.20;81.30
43651;DHT22;29247;50.944;5.382;2022-08-19T05:14:01;19.20;81.30
43651;DHT22;29247;50.944;5.382;2022-08-19T05:16:27;19.20;81.60
43651;DHT22;29247;50.944;5.382;2022-08-19T05:18:58;19.20;81.90
43651;DHT22;29247;50.944;5.382;2022-08-19T05:21:43;19.20;82.10
43651;DHT22;29247;50.944;5.382;2022-08-19T05:24:28;19.30;82.10
43651;DHT22;29247;50.944;5.382;2022-08-19T05:26:54;19.30;82.00
43651;DHT22;29247;50.944;5.382;2022-08-19T05:29:25;19.30;82.20
43651;DHT22;29247;50.944;5.382;2022-08-19T05:31:55;19.30;81.80
43651;DHT22;29247;50.944;5.382;2022-08-19T05:34:23;19.30;81.50
43651;DHT22;29247;50.944;5.382;2022-08-19T05:36:53;19.30;81.70
43651;DHT22;29247;50.944;5.382;2022-08-19T05:39:25;19.30;82.00
43651;DHT22;29247;50.944;5.382;2022-08-19T05:41:57;19.30;81.90
43651;DHT22;29247;50.944;5.382;2022-08-19T05:44:27;19.30;82.20
43651;DHT22;29247;50.944;5.382;2022-08-19T05:46:53;19.40;82.60
43651;DHT22;29247;50.944;5.382;2022-08-19T05:49:21;19.40;82.70
43651;DHT22;29247;50.944;5.382;2022-08-19T05:51:49;19.50;83.00
43651;DHT22;29247;50.944;5.382;2022-08-19T05:54:16;19.50;83.00
43651;DHT22;29247;50.944;5.382;2022-08-19T05:56:44;19.50;83.10
43651;DHT22;29247;50.944;5.382;2022-08-19T05:59:16;19.60;83.20
43651;DHT22;29247;50.944;5.382;2022-08-19T06:01:44;19.60;83.20
43651;DHT22;29247;50.944;5.382;2022-08-19T06:04:11;19.70;83.30
43651;DHT22;29247;50.944;5.382;2022-08-19T06:06:42;19.70;83.30
43651;DHT22;29247;50.944;5.382;2022-08-19T06:09:07;19.70;83.40
43651;DHT22;29247;50.944;5.382;2022-08-19T06:11:41;19.80;83.10
43651;DHT22;29247;50.944;5.382;2022-08-19T06:14:17;19.80;83.10
43651;DHT22;29247;50.944;5.382;2022-08-19T06:16:46;19.80;83.10
43651;DHT22;29247;50.944;5.382;2022-08-19T06:19:16;19.90;82.90
43651;DHT22;29247;50.944;5.382;2022-08-19T06:21:44;19.90;82.90
43651;DHT22;29247;50.944;5.382;2022-08-19T06:24:20;19.90;82.80
43651;DHT22;29247;50.944;5.382;2022-08-19T06:26:53;19.90;82.80
43651;DHT22;29247;50.944;5.382;2022-08-19T06:29:23;20.00;82.80
43651;DHT22;29247;50.944;5.382;2022-08-19T06:31:51;20.00;82.60
43651;DHT22;29247;50.944;5.382;2022-08-19T06:34:18;20.00;82.50
43651;DHT22;29247;50.944;5.382;2022-08-19T06:36:48;20.00;82.20
43651;DHT22;29247;50.944;5.382;2022-08-19T06:39:18;20.10;82.20
43651;DHT22;29247;50.944;5.382;2022-08-19T06:41:47;20.10;82.10
43651;DHT22;29247;50.944;5.382;2022-08-19T06:44:13;20.10;81.80
43651;DHT22;29247;50.944;5.382;2022-08-19T06:46:42;20.10;81.70
43651;DHT22;29247;50.944;5.382;2022-08-19T06:49:08;20.10;81.50
43651;DHT22;29247;50.944;5.382;2022-08-19T06:51:35;20.10;82.30
43651;DHT22;29247;50.944;5.382;2022-08-19T06:54:03;20.20;81.70
43651;DHT22;29247;50.944;5.382;2022-08-19T06:56:31;20.20;81.60
43651;DHT22;29247;50.944;5.382;2022-08-19T06:59:03;20.30;81.60
43651;DHT22;29247;50.944;5.382;2022-08-19T07:01:29;20.30;81.40
43651;DHT22;29247;50.944;5.382;2022-08-19T07:03:59;20.30;81.10
43651;DHT22;29247;50.944;5.382;2022-08-19T07:06:26;20.40;81.00
43651;DHT22;29247;50.944;5.382;2022-08-19T07:08:57;20.40;81.00
43651;DHT22;29247;50.944;5.382;2022-08-19T07:11:24;20.50;80.80
43651;DHT22;29247;50.944;5.382;2022-08-19T07:13:54;20.50;80.80
43651;DHT22;29247;50.944;5.382;2022-08-19T07:16:23;20.60;80.80
43651;DHT22;29247;50.944;5.382;2022-08-19T07:18:50;20.60;80.90
43651;DHT22;29247;50.944;5.382;2022-08-19T07:21:19;20.70;80.70
43651;DHT22;29247;50.944;5.382;2022-08-19T07:23:45;20.70;80.30
43651;DHT22;29247;50.944;5.382;2022-08-19T07:26:19;20.80;80.00
43651;DHT22;29247;50.944;5.382;2022-08-19T07:28:48;20.80;79.90
43651;DHT22;29247;50.944;5.382;2022-08-19T07:31:21;20.80;79.80
43651;DHT22;29247;50.944;5.382;2022-08-19T07:33:48;20.80;79.70
43651;DHT22;29247;50.944;5.382;2022-08-19T07:36:17;20.80;79.50
43651;DHT22;29247;50.944;5.382;2022-08-19T07:38:48;20.80;79.50
43651;DHT22;29247;50.944;5.382;2022-08-19T07:41:28;20.80;79.50
43651;DHT22;29247;50.944;5.382;2022-08-19T07:43:59;20.90;79.80
43651;DHT22;29247;50.944;5.382;2022-08-19T07:46:30;20.90;79.60
43651;DHT22;29247;50.944;5.382;2022-08-19T07:48:57;20.90;79.70
43651;DHT22;29247;50.944;5.382;2022-08-19T07:51:25;21.00;79.80
43651;DHT22;29247;50.944;5.382;2022-08-19T07:53:53;21.00;79.80
43651;DHT22;29247;50.944;5.382;2022-08-19T07:56:20;21.00;79.70
43651;DHT22;29247;50.944;5.382;2022-08-19T07:58:49;21.10;79.70
43651;DHT22;29247;50.944;5.382;2022-08-19T08:01:19;21.10;79.60
43651;DHT22;29247;50.944;5.382;2022-08-19T08:03:47;21.20;79.60
43651;DHT22;29247;50.944;5.382;2022-08-19T08:06:31;21.20;79.40
43651;DHT22;29247;50.944;5.382;2022-08-19T08:09:20;21.30;79.30
43651;DHT22;29247;50.944;5.382;2022-08-19T08:11:51;21.30;79.00
43651;DHT22;29247;50.944;5.382;2022-08-19T08:14:31;21.30;79.00
43651;DHT22;29247;50.944;5.382;2022-08-19T08:17:01;21.30;79.00
43651;DHT22;29247;50.944;5.382;2022-08-19T08:19:27;21.40;79.30
43651;DHT22;29247;50.944;5.382;2022-08-19T08:21:56;21.40;79.00
43651;DHT22;29247;50.944;5.382;2022-08-19T08:24:25;21.50;78.80
43651;DHT22;29247;50.944;5.382;2022-08-19T08:26:53;21.50;78.60
43651;DHT22;29247;50.944;5.382;2022-08-19T08:29:22;21.50;78.60
43651;DHT22;29247;50.944;5.382;2022-08-19T08:31:47;21.50;78.50
43651;DHT22;29247;50.944;5.382;2022-08-19T08:34:14;21.60;78.20
43651;DHT22;29247;50.944;5.382;2022-08-19T08:36:42;21.60;77.90
43651;DHT22;29247;50.944;5.382;2022-08-19T08:39:11;21.60;77.40
43651;DHT22;29247;50.944;5.382;2022-08-19T08:44:10;21.60;77.60
43651;DHT22;29247;50.944;5.382;2022-08-19T08:46:45;21.60;77.70
43651;DHT22;29247;50.944;5.382;2022-08-19T08:49:28;21.60;77.60
43651;DHT22;29247;50.944;5.382;2022-08-19T08:52:04;21.60;77.80
43651;DHT22;29247;50.944;5.382;2022-08-19T08:54:43;21.70;77.90
43651;DHT22;29247;50.944;5.382;2022-08-19T08:57:17;21.80;77.90
43651;DHT22;29247;50.944;5.382;2022-08-19T08:59:49;21.90;77.50
43651;DHT22;29247;50.944;5.382;2022-08-19T09:02:18;22.00;77.00
43651;DHT22;29247;50.944;5.382;2022-08-19T09:04:44;22.00;76.30
43651;DHT22;29247;50.944;5.382;2022-08-19T09:10:04;22.10;76.30
43651;DHT22;29247;50.944;5.382;2022-08-19T09:16:00;22.30;75.90
43651;DHT22;29247;50.944;5.382;2022-08-19T09:18:42;22.30;75.20
43651;DHT22;29247;50.944;5.382;2022-08-19T09:21:09;22.30;74.40
43651;DHT22;29247;50.944;5.382;2022-08-19T09:23:36;22.40;74.10
43651;DHT22;29247;50.944;5.382;2022-08-19T09:26:10;22.40;74.20
43651;DHT22;29247;50.944;5.382;2022-08-19T09:28:40;22.40;74.20
43651;DHT22;29247;50.944;5.382;2022-08-19T09:31:23;22.50;74.10
43651;DHT22;29247;50.944;5.382;2022-08-19T09:33:52;22.50;74.00
43651;DHT22;29247;50.944;5.382;2022-08-19T09:36:20;22.60;73.80
43651;DHT22;29247;50.944;5.382;2022-08-19T09:38:47;22.70;73.50
43651;DHT22;29247;50.944;5.382;2022-08-19T09:41:18;22.80;72.30
43651;DHT22;29247;50.944;5.382;2022-08-19T09:43:51;22.80;71.80
43651;DHT22;29247;50.944;5.382;2022-08-19T09:46:23;22.80;71.40
43651;DHT22;29247;50.944;5.382;2022-08-19T09:48:54;22.70;71.30
43651;DHT22;29247;50.944;5.382;2022-08-19T09:51:27;22.80;71.50
43651;DHT22;29247;50.944;5.382;2022-08-19T09:53:58;22.80;71.40
43651;DHT22;29247;50.944;5.382;2022-08-19T09:56:24;22.80;71.40
43651;DHT22;29247;50.944;5.382;2022-08-19T09:58:49;22.90;71.20
43651;DHT22;29247;50.944;5.382;2022-08-19T10:01:26;22.90;70.70
43651;DHT22;29247;50.944;5.382;2022-08-19T10:03:56;22.90;70.50
43651;DHT22;29247;50.944;5.382;2022-08-19T10:06:27;23.00;69.70
43651;DHT22;29247;50.944;5.382;2022-08-19T10:08:59;23.00;69.80
43651;DHT22;29247;50.944;5.382;2022-08-19T10:11:25;23.00;68.70
43651;DHT22;29247;50.944;5.382;2022-08-19T10:13:57;23.00;68.40
43651;DHT22;29247;50.944;5.382;2022-08-19T10:16:23;23.00;68.70
43651;DHT22;29247;50.944;5.382;2022-08-19T10:18:51;23.10;68.80
43651;DHT22;29247;50.944;5.382;2022-08-19T10:21:23;23.10;68.80
43651;DHT22;29247;50.944;5.382;2022-08-19T10:23:52;23.20;69.10
43651;DHT22;29247;50.944;5.382;2022-08-19T10:26:21;23.30;68.50
43651;DHT22;29247;50.944;5.382;2022-08-19T10:28:47;23.30;68.30
43651;DHT22;29247;50.944;5.382;2022-08-19T10:31:17;23.40;67.80
43651;DHT22;29247;50.944;5.382;2022-08-19T10:33:46;23.50;66.80
43651;DHT22;29247;50.944;5.382;2022-08-19T10:36:18;23.50;66.60
43651;DHT22;29247;50.944;5.382;2022-08-19T10:38:46;23.60;66.80
43651;DHT22;29247;50.944;5.382;2022-08-19T10:41:37;23.70;67.10
43651;DHT22;29247;50.944;5.382;2022-08-19T10:44:09;23.80;66.80
43651;DHT22;29247;50.944;5.382;2022-08-19T10:46:42;23.80;66.40
43651;DHT22;29247;50.944;5.382;2022-08-19T10:49:13;23.90;66.50
43651;DHT22;29247;50.944;5.382;2022-08-19T10:51:41;23.90;66.30
43651;DHT22;29247;50.944;5.382;2022-08-19T10:54:26;23.90;66.30
43651;DHT22;29247;50.944;5.382;2022-08-19T10:57:12;24.00;65.80
43651;DHT22;29247;50.944;5.382;2022-08-19T10:59:38;24.00;66.00
43651;DHT22;29247;50.944;5.382;2022-08-19T11:02:09;24.00;66.20
43651;DHT22;29247;50.944;5.382;2022-08-19T11:04:39;24.00;65.60
43651;DHT22;29247;50.944;5.382;2022-08-19T11:07:06;24.10;65.20
43651;DHT22;29247;50.944;5.382;2022-08-19T11:09:38;24.10;65.60
43651;DHT22;29247;50.944;5.382;2022-08-19T11:12:04;24.10;65.60
43651;DHT22;29247;50.944;5.382;2022-08-19T11:14:31;24.10;65.60
43651;DHT22;29247;50.944;5.382;2022-08-19T11:17:01;24.20;66.20
43651;DHT22;29247;50.944;5.382;2022-08-19T11:19:32;24.20;66.40
43651;DHT22;29247;50.944;5.382;2022-08-19T11:22:01;24.30;66.30
43651;DHT22;29247;50.944;5.382;2022-08-19T11:24:28;24.30;66.00
43651;DHT22;29247;50.944;5.382;2022-08-19T11:27:16;24.30;65.70
43651;DHT22;29247;50.944;5.382;2022-08-19T11:29:46;24.30;65.70
43651;DHT22;29247;50.944;5.382;2022-08-19T11:32:12;24.40;65.60
43651;DHT22;29247;50.944;5.382;2022-08-19T11:34:38;24.40;65.70
43651;DHT22;29247;50.944;5.382;2022-08-19T11:37:05;24.40;65.50
43651;DHT22;29247;50.944;5.382;2022-08-19T11:39:32;24.40;65.20
43651;DHT22;29247;50.944;5.382;2022-08-19T11:42:02;24.40;65.20
43651;DHT22;29247;50.944;5.382;2022-08-19T11:44:51;24.40;65.60
43651;DHT22;29247;50.944;5.382;2022-08-19T11:47:18;24.40;65.70
43651;DHT22;29247;50.944;5.382;2022-08-19T11:49:43;24.50;65.50
43651;DHT22;29247;50.944;5.382;2022-08-19T11:52:13;24.50;65.60
43651;DHT22;29247;50.944;5.382;2022-08-19T11:54:40;24.50;65.50
43651;DHT22;29247;50.944;5.382;2022-08-19T11:57:06;24.50;65.30
43651;DHT22;29247;50.944;5.382;2022-08-19T11:59:32;24.50;65.10
43651;DHT22;29247;50.944;5.382;2022-08-19T12:01:59;24.50;65.00
43651;DHT22;29247;50.944;5.382;2022-08-19T12:04:25;24.50;65.60
43651;DHT22;29247;50.944;5.382;2022-08-19T12:06:51;24.50;65.90
43651;DHT22;29247;50.944;5.382;2022-08-19T12:09:16;24.60;66.10
43651;DHT22;29247;50.944;5.382;2022-08-19T12:11:45;24.60;65.90
43651;DHT22;29247;50.944;5.382;2022-08-19T12:14:12;24.70;65.60
43651;DHT22;29247;50.944;5.382;2022-08-19T12:16:46;24.70;65.70
43651;DHT22;29247;50.944;5.382;2022-08-19T12:19:15;24.70;65.80
43651;DHT22;29247;50.944;5.382;2022-08-19T12:21:43;24.80;65.70
43651;DHT22;29247;50.944;5.382;2022-08-19T12:24:09;24.80;65.50
43651;DHT22;29247;50.944;5.382;2022-08-19T12:26:37;24.80;65.30
43651;DHT22;29247;50.944;5.382;2022-08-19T12:29:03;24.80;65.30
43651;DHT22;29247;50.944;5.382;2022-08-19T12:31:29;24.80;65.50
43651;DHT22;29247;50.944;5.382;2022-08-19T12:33:56;24.80;65.40
43651;DHT22;29247;50.944;5.382;2022-08-19T12:36:22;24.80;65.30
43651;DHT22;29247;50.944;5.382;2022-08-19T12:38:48;24.80;65.90
43651;DHT22;29247;50.944;5.382;2022-08-19T12:41:17;24.90;66.30
43651;DHT22;29247;50.944;5.382;2022-08-19T12:43:44;24.90;66.40
43651;DHT22;29247;50.944;5.382;2022-08-19T12:46:14;25.00;66.00
43651;DHT22;29247;50.944;5.382;2022-08-19T12:48:40;25.00;65.70
43651;DHT22;29247;50.944;5.382;2022-08-19T12:51:13;25.00;65.10
43651;DHT22;29247;50.944;5.382;2022-08-19T12:53:40;24.90;65.10
43651;DHT22;29247;50.944;5.382;2022-08-19T12:56:10;24.90;65.20
43651;DHT22;29247;50.944;5.382;2022-08-19T12:58:36;24.80;65.30
43651;DHT22;29247;50.944;5.382;2022-08-19T13:01:10;24.80;65.70
43651;DHT22;29247;50.944;5.382;2022-08-19T13:03:37;24.70;65.70
43651;DHT22;29247;50.944;5.382;2022-08-19T13:06:03;24.70;65.70
43651;DHT22;29247;50.944;5.382;2022-08-19T13:08:29;24.70;65.70
43651;DHT22;29247;50.944;5.382;2022-08-19T13:10:54;24.70;65.80
43651;DHT22;29247;50.944;5.382;2022-08-19T13:13:49;24.70;66.30
43651;DHT22;29247;50.944;5.382;2022-08-19T13:16:16;24.60;66.20
43651;DHT22;29247;50.944;5.382;2022-08-19T13:18:57;24.60;66.20
43651;DHT22;29247;50.944;5.382;2022-08-19T13:21:25;24.60;66.50
43651;DHT22;29247;50.944;5.382;2022-08-19T13:23:55;24.70;66.80
43651;DHT22;29247;50.944;5.382;2022-08-19T13:26:21;24.70;66.80
43651;DHT22;29247;50.944;5.382;2022-08-19T13:28:47;24.70;66.60
43651;DHT22;29247;50.944;5.382;2022-08-19T13:31:33;24.70;66.80
43651;DHT22;29247;50.944;5.382;2022-08-19T13:34:25;24.70;66.40
43651;DHT22;29247;50.944;5.382;2022-08-19T13:36:53;24.70;66.50
43651;DHT22;29247;50.944;5.382;2022-08-19T13:39:19;24.80;66.70
43651;DHT22;29247;50.944;5.382;2022-08-19T13:41:46;24.80;66.80
43651;DHT22;29247;50.944;5.382;2022-08-19T13:44:17;24.70;66.80
43651;DHT22;29247;50.944;5.382;2022-08-19T13:46:46;24.70;66.90
43651;DHT22;29247;50.944;5.382;2022-08-19T13:49:21;24.70;67.00
43651;DHT22;29247;50.944;5.382;2022-08-19T13:51:50;24.70;67.20
43651;DHT22;29247;50.944;5.382;2022-08-19T13:54:16;24.70;67.40
43651;DHT22;29247;50.944;5.382;2022-08-19T13:56:46;24.70;67.60
43651;DHT22;29247;50.944;5.382;2022-08-19T13:59:12;24.70;67.70
43651;DHT22;29247;50.944;5.382;2022-08-19T14:01:39;24.70;67.50
43651;DHT22;29247;50.944;5.382;2022-08-19T14:04:05;24.80;67.70
43651;DHT22;29247;50.944;5.382;2022-08-19T14:06:31;24.80;67.90
43651;DHT22;29247;50.944;5.382;2022-08-19T14:08:58;24.80;68.10
43651;DHT22;29247;50.944;5.382;2022-08-19T14:11:23;24.80;68.40
43651;DHT22;29247;50.944;5.382;2022-08-19T14:13:50;24.90;68.70
43651;DHT22;29247;50.944;5.382;2022-08-19T14:16:15;25.00;68.70
43651;DHT22;29247;50.944;5.382;2022-08-19T14:18:44;25.00;68.30
43651;DHT22;29247;50.944;5.382;2022-08-19T14:21:16;25.00;67.80
43651;DHT22;29247;50.944;5.382;2022-08-19T14:23:45;25.10;67.70
43651;DHT22;29247;50.944;5.382;2022-08-19T14:26:14;25.10;67.60
43651;DHT22;29247;50.944;5.382;2022-08-19T14:29:00;25.10;67.80
43651;DHT22;29247;50.944;5.382;2022-08-19T14:31:26;25.20;68.20
43651;DHT22;29247;50.944;5.382;2022-08-19T14:33:52;25.20;67.70
43651;DHT22;29247;50.944;5.382;2022-08-19T14:36:19;25.20;67.40
43651;DHT22;29247;50.944;5.382;2022-08-19T14:38:46;25.30;67.30
43651;DHT22;29247;50.944;5.382;2022-08-19T14:41:20;25.30;67.30
43651;DHT22;29247;50.944;5.382;2022-08-19T14:43:49;25.30;67.20
43651;DHT22;29247;50.944;5.382;2022-08-19T14:46:17;25.40;67.70
43651;DHT22;29247;50.944;5.382;2022-08-19T14:48:45;25.50;67.20
43651;DHT22;29247;50.944;5.382;2022-08-19T14:51:13;25.50;66.60
43651;DHT22;29247;50.944;5.382;2022-08-19T14:53:40;25.50;66.30
43651;DHT22;29247;50.944;5.382;2022-08-19T14:56:15;25.50;65.90
43651;DHT22;29247;50.944;5.382;2022-08-19T14:58:42;25.50;65.90
43651;DHT22;29247;50.944;5.382;2022-08-19T15:01:09;25.50;65.30
43651;DHT22;29247;50.944;5.382;2022-08-19T15:03:35;25.50;65.20
43651;DHT22;29247;50.944;5.382;2022-08-19T15:06:03;25.50;65.40
43651;DHT22;29247;50.944;5.382;2022-08-19T15:08:37;25.40;65.50
43651;DHT22;29247;50.944;5.382;2022-08-19T15:11:12;25.40;65.70
43651;DHT22;29247;50.944;5.382;2022-08-19T15:13:40;25.40;65.60
43651;DHT22;29247;50.944;5.382;2022-08-19T15:16:07;25.40;65.30
43651;DHT22;29247;50.944;5.382;2022-08-19T15:18:36;25.40;65.60
43651;DHT22;29247;50.944;5.382;2022-08-19T15:21:03;25.40;65.50
43651;DHT22;29247;50.944;5.382;2022-08-19T15:23:29;25.40;65.30
43651;DHT22;29247;50.944;5.382;2022-08-19T15:25:58;25.40;65.10
43651;DHT22;29247;50.944;5.382;2022-08-19T15:28:26;25.40;65.00
43651;DHT22;29247;50.944;5.382;2022-08-19T15:30:52;25.40;65.00
43651;DHT22;29247;50.944;5.382;2022-08-19T15:33:22;25.40;64.90
43651;DHT22;29247;50.944;5.382;2022-08-19T15:35:49;25.30;64.80
43651;DHT22;29247;50.944;5.382;2022-08-19T15:38:18;25.30;64.80
43651;DHT22;29247;50.944;5.382;2022-08-19T15:40:49;25.30;64.80
43651;DHT22;29247;50.944;5.382;2022-08-19T15:43:18;25.20;64.80
43651;DHT22;29247;50.944;5.382;2022-08-19T15:45:47;25.20;64.90
43651;DHT22;29247;50.944;5.382;2022-08-19T15:51:35;25.20;65.20
43651;DHT22;29247;50.944;5.382;2022-08-19T15:54:05;25.20;65.30
43651;DHT22;29247;50.944;5.382;2022-08-19T15:56:32;25.10;65.40